Port Heiden, Alaska
Current Conditions -  °F | °C
As of 10:56 PM on Friday 24 Oct 2014 (Local Time) from PAPH Reporting Station
Clear Clear  
Wind Chill: 27°   Ceiling: Unl
Heat Index: 27°   Visibility: 10mi
Dew Point: 19°   Wind: 3mph
Humidity: 74%   Direction: 110°ESE
Pressure: 30.05"   Gusts: NA
Location:  56.95°N, 158.63°W
Report Text: PAPH 250656Z AUTO 11003KT 10SM CLR M03/M07 A3005 RMK AO1
Loading
Personal Weather Stations






























Interactive Weather Map New forecast layout! Learn more

10-Day Weather Forecast

Advertisements
Track Severe Weather on mobile